createdAt,value
2019-06-20T03:03:17.783Z,19.80
2019-06-20T03:05:47.153Z,19.80
2019-06-20T03:08:16.449Z,19.80
2019-06-20T03:10:45.755Z,19.80
2019-06-20T03:13:15.125Z,19.80
2019-06-20T03:15:44.404Z,19.70
2019-06-20T03:18:13.715Z,19.70
2019-06-20T03:20:43.012Z,19.70
2019-06-20T03:23:12.366Z,19.70
2019-06-20T03:25:41.728Z,19.70
2019-06-20T03:28:11.010Z,19.60
2019-06-20T03:30:40.313Z,19.50
2019-06-20T03:33:10.587Z,19.50
2019-06-20T03:35:40.157Z,19.50
2019-06-20T03:38:09.498Z,19.40
2019-06-20T03:40:38.827Z,19.50
2019-06-20T03:43:08.139Z,19.40
2019-06-20T03:45:37.430Z,19.50
2019-06-20T03:48:06.959Z,19.50
2019-06-20T03:50:36.481Z,19.40
2019-06-20T03:53:05.771Z,19.50
2019-06-20T03:55:35.451Z,19.40
2019-06-20T03:58:04.964Z,19.30
2019-06-20T04:00:35.687Z,19.20
2019-06-20T04:03:05.831Z,19.20
2019-06-20T04:05:35.389Z,19.30
2019-06-20T04:08:04.865Z,19.30
2019-06-20T04:10:34.558Z,19.20
2019-06-20T04:13:04.346Z,19.30
2019-06-20T04:15:33.823Z,19.40
2019-06-20T04:18:03.115Z,19.40
2019-06-20T04:20:32.428Z,19.40
2019-06-20T04:23:01.714Z,19.50
2019-06-20T04:25:31.235Z,19.60
2019-06-20T04:28:00.751Z,19.60
2019-06-20T04:30:30.272Z,19.50
2019-06-20T04:32:59.556Z,19.50
2019-06-20T04:35:28.850Z,19.50
2019-06-20T04:37:58.137Z,19.60
2019-06-20T04:40:27.432Z,19.60
2019-06-20T04:42:56.715Z,19.60
2019-06-20T04:45:39.564Z,19.50
2019-06-20T04:48:08.852Z,19.50
2019-06-20T04:50:38.956Z,19.50
2019-06-20T04:53:08.451Z,19.40
2019-06-20T04:55:37.772Z,19.40
2019-06-20T04:58:07.123Z,19.40
2019-06-20T05:00:37.687Z,19.40
2019-06-20T05:03:06.975Z,19.40
2019-06-20T05:05:37.241Z,19.40
2019-06-20T05:08:07.495Z,19.50
2019-06-20T05:10:37.123Z,19.60
2019-06-20T05:13:06.798Z,19.70
2019-06-20T05:15:51.335Z,19.90
2019-06-20T05:18:07.357Z,20.10
2019-06-20T05:20:36.871Z,20.20
2019-06-20T05:23:06.469Z,20.30
2019-06-20T05:25:35.976Z,20.20
2019-06-20T05:28:05.298Z,20.10
2019-06-20T05:30:34.605Z,20.10
2019-06-20T05:33:04.136Z,20.00
2019-06-20T05:35:33.451Z,20.00
2019-06-20T05:38:02.864Z,20.10
2019-06-20T05:40:32.170Z,20.30
2019-06-20T05:43:02.555Z,20.20
2019-06-20T05:45:31.850Z,20.20
2019-06-20T05:48:01.139Z,20.30
2019-06-20T05:50:31.008Z,20.40
2019-06-20T05:53:00.522Z,20.50
2019-06-20T05:55:29.815Z,20.60
2019-06-20T05:57:59.106Z,20.70
2019-06-20T06:00:28.481Z,20.90
2019-06-20T06:02:58.259Z,21.00
2019-06-20T06:05:28.696Z,21.20
2019-06-20T06:07:58.497Z,21.30
2019-06-20T06:10:27.879Z,21.50
2019-06-20T06:12:57.227Z,21.60
2019-06-20T06:15:26.515Z,21.80
2019-06-20T06:17:56.308Z,21.90
2019-06-20T06:20:25.903Z,21.90
2019-06-20T06:22:55.203Z,21.90
2019-06-20T06:25:24.496Z,21.70
2019-06-20T06:27:53.786Z,21.70
2019-06-20T06:30:23.857Z,21.60
2019-06-20T06:32:53.381Z,21.50
2019-06-20T06:35:22.823Z,21.60
2019-06-20T06:37:52.126Z,21.90
2019-06-20T06:40:22.160Z,22.00
2019-06-20T06:42:51.447Z,22.10
2019-06-20T06:45:21.068Z,22.10
2019-06-20T06:47:50.359Z,22.30
2019-06-20T06:50:20.714Z,22.30
2019-06-20T06:52:50.003Z,22.10
2019-06-20T06:55:21.426Z,22.00
2019-06-20T06:57:50.722Z,22.00
2019-06-20T07:00:21.471Z,22.30
2019-06-20T07:02:50.764Z,22.40
2019-06-20T07:05:20.064Z,22.70
2019-06-20T07:07:49.346Z,22.70
2019-06-20T07:10:20.350Z,22.60
2019-06-20T07:12:49.643Z,22.60
2019-06-20T07:15:19.600Z,22.80
2019-06-20T07:17:49.087Z,22.80
2019-06-20T07:20:18.472Z,22.70
2019-06-20T07:22:47.740Z,22.80
2019-06-20T07:25:17.103Z,23.10
2019-06-20T07:27:46.394Z,23.40
2019-06-20T07:30:16.451Z,23.50
2019-06-20T07:32:46.041Z,23.70
2019-06-20T07:35:15.503Z,23.40
2019-06-20T07:37:44.796Z,23.40
2019-06-20T07:40:16.991Z,23.50
2019-06-20T07:42:46.584Z,23.40
2019-06-20T07:45:16.226Z,23.40
2019-06-20T07:47:45.516Z,23.40
2019-06-20T07:50:16.711Z,23.50
2019-06-20T07:53:00.853Z,23.60
2019-06-20T07:55:17.822Z,23.70
2019-06-20T07:57:47.345Z,23.90
2019-06-20T08:00:18.643Z,24.00
2019-06-20T08:02:47.961Z,24.30
2019-06-20T08:05:17.383Z,24.60
2019-06-20T08:07:46.675Z,24.30
2019-06-20T08:10:17.800Z,24.10
2019-06-20T08:12:47.090Z,24.30
2019-06-20T08:15:16.920Z,24.30
2019-06-20T08:17:46.202Z,24.30
2019-06-20T08:20:15.961Z,24.30
2019-06-20T08:22:45.251Z,24.30
2019-06-20T08:25:16.090Z,24.40
2019-06-20T08:27:54.231Z,24.20
2019-06-20T08:30:29.562Z,24.30
2019-06-20T08:33:01.552Z,24.30
2019-06-20T08:35:32.589Z,24.20
2019-06-20T08:38:03.587Z,24.00
2019-06-20T08:40:36.053Z,24.10
2019-06-20T08:43:06.263Z,24.10
2019-06-20T08:45:36.913Z,24.30
2019-06-20T08:48:07.449Z,24.60
2019-06-20T08:50:38.322Z,24.60
2019-06-20T08:53:07.850Z,24.60
2019-06-20T08:55:38.042Z,24.60
2019-06-20T08:58:07.778Z,24.50
2019-06-20T09:00:37.989Z,24.60
2019-06-20T09:03:07.471Z,24.80
2019-06-20T09:05:37.477Z,24.90
2019-06-20T09:08:11.264Z,25.00
2019-06-20T09:10:40.951Z,24.40
2019-06-20T09:13:12.071Z,24.40
2019-06-20T09:15:42.755Z,24.40
2019-06-20T09:18:12.333Z,24.40
2019-06-20T09:20:41.755Z,24.40
2019-06-20T09:23:11.252Z,24.30
2019-06-20T09:25:41.913Z,24.20
2019-06-20T09:28:11.374Z,24.20
2019-06-20T09:30:41.015Z,24.20
2019-06-20T09:33:10.414Z,24.40
2019-06-20T09:35:39.795Z,24.20
2019-06-20T09:38:09.242Z,24.40
2019-06-20T09:40:39.142Z,24.60
2019-06-20T09:43:09.812Z,24.60
2019-06-20T09:45:39.383Z,24.80
2019-06-20T09:48:08.676Z,24.90
2019-06-20T09:50:38.238Z,24.90
2019-06-20T09:53:07.633Z,25.10
2019-06-20T09:55:37.038Z,25.00
2019-06-20T09:58:06.385Z,25.20
2019-06-20T10:00:36.871Z,25.10
2019-06-20T10:03:06.327Z,25.30
2019-06-20T10:05:35.754Z,25.70
2019-06-20T10:08:05.355Z,26.10
2019-06-20T10:10:35.039Z,26.20
2019-06-20T10:13:04.707Z,26.10
2019-06-20T10:15:36.448Z,26.10
2019-06-20T10:18:05.869Z,25.90
2019-06-20T10:20:37.993Z,26.10
2019-06-20T10:23:06.221Z,26.00
2019-06-20T10:25:35.804Z,25.60
2019-06-20T10:28:05.168Z,25.60
2019-06-20T10:30:34.699Z,25.60
2019-06-20T10:33:04.340Z,25.50
2019-06-20T10:35:33.641Z,25.50
2019-06-20T10:38:02.983Z,25.60
2019-06-20T10:40:32.514Z,25.70
2019-06-20T10:43:02.038Z,25.70
2019-06-20T10:45:33.355Z,25.50
2019-06-20T10:48:02.651Z,25.70
2019-06-20T10:50:32.086Z,26.10
2019-06-20T10:53:01.418Z,26.50
2019-06-20T10:55:30.816Z,26.80
2019-06-20T10:58:00.138Z,27.30
2019-06-20T11:00:31.735Z,27.40
2019-06-20T11:03:01.423Z,27.30
2019-06-20T11:05:31.387Z,26.90
2019-06-20T11:08:00.723Z,26.70
2019-06-20T11:10:30.876Z,26.80
2019-06-20T11:13:00.167Z,27.10
2019-06-20T11:15:30.800Z,27.30
2019-06-20T11:18:00.332Z,27.70
2019-06-20T11:20:29.698Z,28.10
2019-06-20T11:22:58.986Z,28.40
2019-06-20T11:25:28.656Z,28.40
2019-06-20T11:27:57.938Z,27.60
2019-06-20T11:30:44.567Z,26.80
2019-06-20T11:33:00.948Z,26.70
2019-06-20T11:35:30.228Z,26.60
2019-06-20T11:37:59.848Z,27.00
2019-06-20T11:40:29.442Z,27.50
2019-06-20T11:42:58.894Z,27.60
2019-06-20T11:45:28.264Z,27.70
2019-06-20T11:47:57.556Z,28.00
2019-06-20T11:50:27.141Z,28.30
2019-06-20T11:52:56.434Z,28.50
2019-06-20T11:55:25.724Z,28.60
2019-06-20T11:57:55.018Z,28.20
2019-06-20T12:00:24.555Z,27.80
2019-06-20T12:02:53.852Z,28.00
2019-06-20T12:05:23.127Z,28.80
2019-06-20T12:07:52.422Z,29.50
2019-06-20T12:10:22.274Z,29.50
2019-06-20T12:12:51.587Z,29.60
2019-06-20T12:15:22.355Z,29.50
2019-06-20T12:17:52.346Z,29.80
2019-06-20T12:20:24.022Z,29.30
2019-06-20T12:22:53.551Z,28.90
2019-06-20T12:25:25.083Z,28.70
2019-06-20T12:27:54.375Z,28.80
2019-06-20T12:30:25.672Z,28.40
2019-06-20T12:32:54.962Z,28.20
2019-06-20T12:35:24.263Z,28.00
2019-06-20T12:37:53.550Z,27.80
2019-06-20T12:40:24.238Z,28.00
2019-06-20T12:42:53.507Z,28.10
2019-06-20T12:45:22.806Z,28.60
2019-06-20T12:47:52.457Z,28.90
2019-06-20T12:50:22.035Z,28.90
2019-06-20T12:52:51.319Z,28.60
2019-06-20T12:55:20.683Z,28.50
2019-06-20T12:57:50.218Z,28.60
2019-06-20T13:00:20.578Z,28.60
2019-06-20T13:02:49.941Z,28.70
2019-06-20T13:05:21.138Z,28.90
2019-06-20T13:07:51.402Z,28.70
2019-06-20T13:10:21.604Z,28.70
2019-06-20T13:12:51.618Z,28.40
2019-06-20T13:15:21.352Z,28.10
2019-06-20T13:17:50.702Z,28.20
2019-06-20T13:20:21.164Z,28.40
2019-06-20T13:22:50.524Z,28.20
2019-06-20T13:25:19.814Z,28.20
2019-06-20T13:27:50.553Z,27.50
2019-06-20T13:30:21.531Z,27.60
2019-06-20T13:32:50.820Z,27.40
2019-06-20T13:35:20.446Z,27.10
2019-06-20T13:37:50.109Z,26.80
2019-06-20T13:40:19.646Z,26.60
2019-06-20T13:42:50.257Z,26.70
2019-06-20T13:45:25.179Z,27.10
2019-06-20T13:47:54.903Z,27.70
2019-06-20T13:50:24.842Z,28.20
2019-06-20T13:52:54.361Z,28.60
2019-06-20T13:55:23.651Z,28.80
2019-06-20T13:57:53.142Z,28.90
2019-06-20T14:00:24.020Z,28.70
2019-06-20T14:02:53.609Z,28.90
2019-06-20T14:05:23.191Z,29.00
2019-06-20T14:07:54.328Z,28.90
2019-06-20T14:10:24.003Z,28.70
2019-06-20T14:12:53.307Z,28.20
2019-06-20T14:15:22.660Z,28.10
2019-06-20T14:17:53.892Z,28.20
2019-06-20T14:20:24.427Z,28.30
2019-06-20T14:22:54.611Z,28.40
2019-06-20T14:25:24.102Z,28.40
2019-06-20T14:27:53.925Z,28.40
2019-06-20T14:30:23.405Z,28.10
2019-06-20T14:32:54.061Z,27.80
2019-06-20T14:35:23.736Z,27.60
2019-06-20T14:37:53.121Z,27.50
2019-06-20T14:40:22.578Z,27.30
2019-06-20T14:42:52.535Z,27.20
2019-06-20T14:45:22.003Z,26.90
2019-06-20T14:47:52.500Z,26.60
2019-06-20T14:50:22.346Z,26.40
2019-06-20T14:52:52.355Z,26.30
2019-06-20T14:55:22.106Z,26.10
2019-06-20T14:57:52.513Z,25.90
2019-06-20T15:00:22.420Z,25.90
2019-06-20T15:02:54.452Z,25.70
2019-06-20T15:05:22.959Z,25.60
2019-06-20T15:07:53.920Z,25.60
2019-06-20T15:10:23.262Z,25.60
2019-06-20T15:12:53.770Z,25.50
2019-06-20T15:15:23.634Z,25.50
2019-06-20T15:17:55.365Z,25.40
2019-06-20T15:20:24.156Z,25.60
2019-06-20T15:22:54.654Z,25.70
2019-06-20T15:25:24.267Z,25.70
2019-06-20T15:27:55.268Z,25.60
2019-06-20T15:30:24.635Z,25.50
2019-06-20T15:33:05.787Z,25.20
2019-06-20T15:35:24.926Z,24.90
2019-06-20T15:37:55.600Z,24.10
2019-06-20T15:40:25.348Z,23.40
2019-06-20T15:42:55.447Z,23.00
2019-06-20T15:45:25.881Z,22.90
2019-06-20T15:47:55.255Z,23.10
2019-06-20T15:50:24.848Z,23.50
2019-06-20T15:52:54.185Z,23.80
2019-06-20T15:55:23.613Z,24.00
2019-06-20T15:57:54.226Z,24.10
2019-06-20T16:00:23.974Z,24.00
2019-06-20T16:03:08.430Z,24.40
2019-06-20T16:05:24.374Z,24.80
2019-06-20T16:07:53.671Z,25.40
2019-06-20T16:10:23.307Z,26.10
2019-06-20T16:12:52.594Z,26.50
2019-06-20T16:15:23.183Z,26.70
2019-06-20T16:17:52.537Z,27.30
2019-06-20T16:20:22.795Z,27.90
2019-06-20T16:22:52.255Z,27.70
2019-06-20T16:25:21.604Z,27.00
2019-06-20T16:27:51.198Z,26.70
2019-06-20T16:30:21.087Z,27.00
2019-06-20T16:32:50.436Z,27.50
2019-06-20T16:35:20.072Z,28.10
2019-06-20T16:37:49.348Z,28.60
2019-06-20T16:40:30.815Z,29.20
2019-06-20T16:43:00.101Z,29.30
2019-06-20T16:45:29.530Z,29.50
2019-06-20T16:47:58.931Z,28.50
2019-06-20T16:50:28.265Z,28.30
2019-06-20T16:53:01.061Z,28.80
2019-06-20T16:55:28.759Z,29.10
2019-06-20T16:57:58.130Z,28.90
2019-06-20T17:00:28.627Z,29.20
2019-06-20T17:02:58.163Z,29.50
2019-06-20T17:05:27.527Z,29.50
2019-06-20T17:07:57.123Z,29.30
2019-06-20T17:10:27.030Z,29.20
2019-06-20T17:12:56.328Z,28.70
2019-06-20T17:15:25.901Z,27.90
2019-06-20T17:17:55.582Z,27.30
2019-06-20T17:20:24.999Z,26.60
2019-06-20T17:22:56.083Z,26.00
2019-06-20T17:25:25.374Z,25.40
2019-06-20T17:27:54.682Z,24.90
2019-06-20T17:30:24.219Z,24.50
2019-06-20T17:32:53.506Z,24.10
2019-06-20T17:35:23.442Z,23.80
2019-06-20T17:37:52.746Z,23.70
2019-06-20T17:40:22.675Z,23.70
2019-06-20T17:42:52.200Z,23.60
2019-06-20T17:45:22.355Z,23.50
2019-06-20T17:47:51.651Z,23.20
2019-06-20T17:50:21.282Z,23.10
2019-06-20T17:52:51.764Z,22.90
2019-06-20T17:55:22.064Z,22.60
2019-06-20T17:57:51.411Z,22.40
2019-06-20T18:00:22.811Z,22.30
2019-06-20T18:02:52.104Z,22.00
2019-06-20T18:05:21.386Z,22.00
2019-06-20T18:07:50.678Z,22.00
2019-06-20T18:10:20.305Z,22.10
2019-06-20T18:12:49.603Z,21.90
2019-06-20T18:15:19.330Z,21.60
2019-06-20T18:17:48.702Z,21.30
2019-06-20T18:20:18.520Z,21.00
2019-06-20T18:22:48.043Z,21.00
2019-06-20T18:25:17.528Z,21.20
2019-06-20T18:27:46.831Z,21.10
2019-06-20T18:30:16.455Z,21.00
2019-06-20T18:32:45.751Z,21.00
2019-06-20T18:35:15.511Z,21.00
2019-06-20T18:37:45.041Z,20.90
2019-06-20T18:40:14.764Z,20.90
2019-06-20T18:42:44.146Z,21.00
2019-06-20T18:45:13.508Z,21.00
2019-06-20T18:47:42.797Z,20.90
2019-06-20T18:50:12.403Z,20.80
2019-06-20T18:52:51.812Z,21.00
2019-06-20T18:55:12.971Z,21.00
2019-06-20T18:57:42.328Z,21.00
2019-06-20T19:00:14.264Z,21.00
2019-06-20T19:02:43.919Z,20.90
2019-06-20T19:05:13.518Z,20.90
2019-06-20T19:07:42.821Z,20.80
2019-06-20T19:10:12.716Z,20.90
2019-06-20T19:12:42.020Z,21.00
2019-06-20T19:15:12.267Z,21.00
2019-06-20T19:17:41.594Z,21.00
2019-06-20T19:20:12.617Z,20.90
2019-06-20T19:22:41.920Z,20.80
2019-06-20T19:25:11.499Z,20.90
2019-06-20T19:27:46.550Z,20.90
2019-06-20T19:30:14.960Z,20.70
2019-06-20T19:32:44.305Z,20.70
2019-06-20T19:35:13.923Z,20.70
2019-06-20T19:37:43.235Z,20.60
2019-06-20T19:40:14.139Z,20.60
2019-06-20T19:42:43.428Z,20.70
2019-06-20T19:45:13.162Z,20.60
2019-06-20T19:47:43.025Z,20.60
2019-06-20T19:50:12.879Z,20.40
2019-06-20T19:52:42.323Z,20.40
2019-06-20T19:55:12.851Z,20.40
2019-06-20T19:57:42.362Z,20.30
2019-06-20T20:00:12.094Z,20.30
2019-06-20T20:02:41.578Z,19.90
2019-06-20T20:05:19.288Z,19.80
2019-06-20T20:07:42.614Z,19.80
2019-06-20T20:10:12.240Z,19.70
2019-06-20T20:12:41.576Z,19.60
2019-06-20T20:15:11.703Z,19.60
2019-06-20T20:17:40.996Z,19.60
2019-06-20T20:20:10.524Z,19.70
2019-06-20T20:22:39.818Z,19.60
2019-06-20T20:25:10.367Z,19.60
2019-06-20T20:27:39.743Z,19.60
2019-06-20T20:30:10.835Z,19.40
2019-06-20T20:32:40.754Z,19.50
2019-06-20T20:35:10.110Z,19.60
2019-06-20T20:37:39.627Z,19.60
2019-06-20T20:40:10.665Z,19.60
2019-06-20T20:42:39.956Z,19.60
2019-06-20T20:45:11.181Z,19.60
2019-06-20T20:47:40.543Z,19.60
2019-06-20T20:50:10.358Z,19.60
2019-06-20T20:52:39.659Z,19.60
2019-06-20T20:55:10.192Z,19.50
2019-06-20T20:57:39.717Z,19.50
2019-06-20T21:00:10.785Z,19.50
2019-06-20T21:02:40.139Z,19.60
2019-06-20T21:05:09.505Z,19.60
2019-06-20T21:07:39.296Z,19.60
2019-06-20T21:10:09.134Z,19.70
2019-06-20T21:12:38.414Z,19.70
2019-06-20T21:15:08.124Z,19.60
2019-06-20T21:17:37.499Z,19.50
2019-06-20T21:20:07.580Z,19.50
2019-06-20T21:22:36.854Z,19.40
2019-06-20T21:25:07.319Z,19.40
2019-06-20T21:27:36.887Z,19.40
2019-06-20T21:30:08.448Z,19.40
2019-06-20T21:32:37.736Z,19.30
2019-06-20T21:35:07.863Z,19.30
2019-06-20T21:37:37.455Z,19.30
2019-06-20T21:40:07.677Z,19.40
2019-06-20T21:42:36.968Z,19.40
2019-06-20T21:45:07.002Z,19.40
2019-06-20T21:47:36.289Z,19.30
2019-06-20T21:50:07.653Z,19.20
2019-06-20T21:52:38.323Z,19.20
2019-06-20T21:55:07.967Z,19.10
2019-06-20T21:57:37.307Z,19.10
2019-06-20T22:00:15.360Z,19.10
2019-06-20T22:02:46.273Z,19.00
2019-06-20T22:05:15.691Z,18.90
2019-06-20T22:07:45.066Z,19.00
2019-06-20T22:10:15.468Z,18.90
2019-06-20T22:12:44.758Z,18.80
2019-06-20T22:15:14.789Z,18.70
2019-06-20T22:17:44.080Z,18.80
2019-06-20T22:20:17.183Z,18.70
2019-06-20T22:22:46.471Z,18.60
2019-06-20T22:25:17.219Z,18.60
2019-06-20T22:27:46.499Z,18.60
2019-06-20T22:30:16.629Z,18.70
2019-06-20T22:32:45.902Z,18.70
2019-06-20T22:35:15.266Z,18.70
2019-06-20T22:37:44.606Z,18.80
2019-06-20T22:40:14.571Z,18.70
2019-06-20T22:42:43.937Z,18.80
2019-06-20T22:45:13.300Z,18.70
2019-06-20T22:47:42.831Z,18.70
2019-06-20T22:50:12.359Z,18.70
2019-06-20T22:52:41.880Z,18.80
2019-06-20T22:55:11.318Z,18.80
2019-06-20T22:57:40.611Z,18.80
2019-06-20T23:00:10.451Z,18.70
2019-06-20T23:02:40.411Z,18.70
2019-06-20T23:05:09.879Z,18.70
2019-06-20T23:07:39.171Z,18.50
2019-06-20T23:10:11.040Z,18.50
2019-06-20T23:12:39.703Z,18.50
2019-06-20T23:15:09.727Z,18.40
2019-06-20T23:17:39.254Z,18.40
2019-06-20T23:20:09.506Z,18.40
2019-06-20T23:22:38.864Z,18.40
2019-06-20T23:25:08.987Z,18.40
2019-06-20T23:27:39.319Z,18.60
2019-06-20T23:30:09.367Z,18.50
2019-06-20T23:32:38.727Z,18.40
2019-06-20T23:35:08.672Z,18.30
2019-06-20T23:37:37.927Z,18.20
2019-06-20T23:40:07.856Z,18.20
2019-06-20T23:42:37.147Z,18.30
2019-06-20T23:45:08.085Z,18.40
2019-06-20T23:47:37.440Z,18.40
2019-06-20T23:50:09.519Z,18.50
2019-06-20T23:52:43.607Z,18.40
2019-06-20T23:55:13.136Z,18.40
2019-06-20T23:57:42.656Z,18.30
